Notice: Undefined index: name in /home/yearbywe/public_html/pwsTEST/metar_load_funct.php on line 53

Notice: Undefined index: humidity_percent in /home/yearbywe/public_html/pwsTEST/metar_load_funct.php on line 95
Metar Aviation Weather Data     EGNV
 X  CloseMetar Aviation Weather Data     EGNV

Temperature

14°C Temp

11°C Dewpoint

% Humidity



Wind

26 KM/H

16 MPH

14 KTS



180°
Due South
Current Conditions

Partly Cloudy Partly Cloudy
Pressure 995.92 (hPa) - 29.41 (in)
Visibility 6.2 (mi) - 10 (km)
Airport
Airport-code EGNV

Location 0 (mi)

Metar:
EGNV 201050Z 18014KT 9999 8000SW FEW010 SCT035 14/11 Q0996


Notice: Undefined offset: 1 in /home/yearbywe/public_html/pwsTEST/metar_popup.php on line 198

Notice: Undefined offset: 1 in /home/yearbywe/public_html/pwsTEST/metar_popup.php on line 200
Time: 12-04-2026 01:00